Flight Track Log - Related Links

Times and Time Zones

All times are in EST time to prevent confusion due to time zone crossing. See the EJA142 flight status page for this flight to view local times or setup timezone preferences in your user account.

Time Position Orientation Groundspeed Altitude Reporting Facility
EST Latitude Longitude Course Direction KTS MPH feet Rate Location/Type
Sat 10:21:09 AM 45.4670 -73.7290 224° Southwest 144 166 700  Level FlightAware ADS-B
Sat 10:21:27 AM 45.4580 -73.7410 223° Southwest 148 170 1,800 3,500 Climbing FlightAware ADS-B
Sat 10:21:45 AM 45.4470 -73.7540 220° Southwest 163 188 2,800 3,568 Climbing FlightAware ADS-B
Sat 10:22:04 AM 45.4370 -73.7670 222° Southwest 177 204 4,000 3,143 Climbing FlightAware ADS-B
Sat 10:22:27 AM 45.4190 -73.7850 215° Southwest 216 249 5,000 2,897 Climbing FlightAware ADS-B
Sat 10:22:33 AM 45.4130 -73.7890 205° Southwest 220 253 5,400 4,000 Climbing FlightAware ADS-B
Sat 10:22:57 AM 45.3910 -73.8010 201° Southwest 228 262 7,000 3,857 Climbing FlightAware ADS-B
Sat 10:23:15 AM 45.3720 -73.8110 200° South 235 270 8,100 3,833 Climbing FlightAware ADS-B
Sat 10:23:33 AM 45.3540 -73.8200 199° South 235 270 9,300 4,105 Climbing FlightAware ADS-B
Sat 10:23:53 AM 45.4768 -73.7163 31° Northeast 235 270 10,700 3,243 Climbing FlightAware ADS-B
Sat 10:24:10 AM 45.3160 -73.8390 208° Southwest 255 293 11,300 1,756 Climbing FlightAware ADS-B
Sat 10:24:34 AM 45.3100 -73.8426 203° Southwest 290 334 11,900 1,667 Climbing FlightAware ADS-B
Sat 10:24:46 AM 45.2720 -73.8620 200° South 299 344 12,300 2,889 Climbing FlightAware ADS-B
Sat 10:25:28 AM 45.2160 -73.8910 200° South 312 359 14,500 3,130 Climbing FlightAware ADS-B
Sat 10:25:32 AM 45.2099 -73.8938 198° South 313 360 14,700 2,800 Climbing FlightAware ADS-B
Sat 10:25:58 AM 45.1750 -73.9120 200° South 321 369 15,900 3,184 Climbing FlightAware ADS-B
Sat 10:26:21 AM 45.1457 -73.9267 202° Southwest 323 372 17,300 3,400 Climbing FlightAware ADS-B
Sat 10:26:28 AM 45.1330 -73.9330 199° South 324 373 17,600 3,000 Climbing FlightAware ADS-B
Sat 10:26:57 AM 45.0970 -73.9510 202° Southwest 330 380 19,100 3,000 Climbing FlightAware ADS-B
Sat 10:27:06 AM 45.0773 -73.9619 201° Southwest 332 382 19,500 2,333 Climbing FlightAware ADS-B
Sat 10:27:15 AM 45.0650 -73.9710 208° Southwest 330 380 19,800 2,000 Climbing FlightAware ADS-B
Sat 10:27:36 AM 45.0412 -73.9978 218° Southwest 335 386 20,500 2,333 Climbing FlightAware ADS-B
Sat 10:27:51 AM 45.0230 -74.0210 222° Southwest 339 390 21,200 2,267 Climbing FlightAware ADS-B
Sat 10:28:21 AM 45.0071 -74.0395 219° Southwest 353 406 22,200 2,000 Climbing FlightAware ADS-B
Sat 10:28:27 AM 44.9790 -74.0740 221° Southwest 356 410 22,400 2,833 Climbing FlightAware ADS-B
Sat 10:28:57 AM 44.9420 -74.1190 221° Southwest 358 412 23,900 2,909 Climbing FlightAware ADS-B
Sat 10:29:00 AM 44.9383 -74.1234 220° Southwest 357 411 24,000 2,710 Climbing FlightAware ADS-B
Sat 10:29:28 AM 44.9040 -74.1650 221° Southwest 358 412 25,300 2,743 Climbing FlightAware ADS-B
Sat 10:29:35 AM 44.8990 -74.1712 221° Southwest 359 413 25,600 2,914 Climbing FlightAware ADS-B
Sat 10:30:03 AM 44.8600 -74.2190 221° Southwest 353 406 27,000 2,923 Climbing FlightAware ADS-B
Sat 10:30:14 AM 44.8456 -74.2359 220° Southwest 355 409 27,500 1,622 Climbing FlightAware ADS-B
Sat 10:30:40 AM 44.8140 -74.2740 221° Southwest 370 426 28,000 1,472 Climbing FlightAware ADS-B
Sat 10:31:07 AM 44.7800 -74.3160 221° Southwest 375 432 28,800 1,688 Climbing FlightAware ADS-B
Sat 10:31:12 AM 44.7718 -74.3255 219° Southwest 379 436 28,900 1,500 Climbing FlightAware ADS-B
Sat 10:31:39 AM 44.7350 -74.3700 221° Southwest 389 448 29,600 1,600 Climbing FlightAware ADS-B
Sat 10:31:42 AM 44.7346 -74.3703 211° Southwest 389 448 29,700 2,129 Climbing FlightAware ADS-B
Sat 10:32:10 AM 44.6940 -74.4190 220° Southwest 389 448 30,700 2,129 Climbing FlightAware ADS-B
Sat 10:32:13 AM 44.7068 -74.4039 40° Northeast 388 447 30,800 2,364 Climbing FlightAware ADS-B
Sat 10:32:43 AM 44.6517 -74.4702 221° Southwest 384 442 32,000 2,250 Climbing FlightAware ADS-B
Sat 10:32:45 AM 44.6450 -74.4780 219° Southwest 385 443 32,000 1,902 Level FlightAware ADS-B
Sat 10:33:24 AM 44.6082 -74.5226 221° Southwest 384 442 33,300 2,000 Climbing FlightAware ADS-B
Sat 10:33:33 AM 44.5800 -74.5560 220° Southwest 387 445 33,600 1,200 Climbing FlightAware ADS-B
Sat 10:33:54 AM 44.5509 -74.5913 221° Southwest 396 456 33,900 1,297 Climbing FlightAware ADS-B
Sat 10:34:10 AM 44.5300 -74.6160 220° Southwest 395 455 34,400 1,814 Climbing FlightAware ADS-B
Sat 10:34:37 AM 44.4923 -74.6613 221° Southwest 394 453 35,200 1,667 Climbing FlightAware ADS-B
Sat 10:34:46 AM 44.4800 -74.6760 220° Southwest 398 458 35,400 1,231 Climbing FlightAware ADS-B
Sat 10:35:16 AM 44.4380 -74.7260 220° Southwest 402 463 36,000 1,161 Climbing FlightAware ADS-B
Sat 10:35:17 AM 44.4397 -74.7242 38° Northeast 402 463 36,000 1,200 Level FlightAware ADS-B
Sat 10:35:51 AM 44.3870 -74.7870 220° Southwest 410 472 36,700 1,135 Climbing FlightAware ADS-B
Sat 10:35:54 AM 44.3863 -74.7878 216° Southwest 403 464 36,700 2,087 Level FlightAware ADS-B
Sat 10:36:14 AM 44.3627 -74.8157 220° Southwest 402 463 37,500 1,765 Climbing FlightAware ADS-B
Sat 10:36:45 AM 44.3110 -74.8771 220° Southwest 402 463 38,200 1,082 Climbing FlightAware ADS-B
Sat 10:37:15 AM 44.2680 -74.9270 220° Southwest 410 472 38,600 769 Climbing FlightAware ADS-B
Sat 10:37:24 AM 44.2546 -74.9438 222° Southwest 411 473 38,700 769 Climbing FlightAware ADS-B
Sat 10:37:54 AM 44.2150 -74.9904 220° Southwest 408 470 39,100 727 Climbing FlightAware ADS-B
Sat 10:37:57 AM 44.2070 -74.9990 218° Southwest 416 479 39,100 581 Level FlightAware ADS-B
Sat 10:38:25 AM 44.1748 -75.0378 221° Southwest 411 473 39,400 667 Climbing FlightAware ADS-B (EPGD / GDN)
Sat 10:38:33 AM 44.1540 -75.0620 220° Southwest 422 486 39,500 750 Climbing FlightAware ADS-B
Sat 10:38:57 AM 44.1200 -75.1070 224° Southwest 425 489 39,800 621 Climbing FlightAware ADS-B
Sat 10:39:02 AM 44.1133 -75.1181 230° Southwest 426 490 39,800 667 Level FlightAware ADS-B
Sat 10:39:33 AM 44.0828 -75.1796 235° Southwest 427 491 40,200 1,147 Climbing FlightAware ADS-B
Sat 10:40:10 AM 44.0444 -75.2648 238° Southwest 413 475 41,100 1,650 Climbing FlightAware ADS-B (EPGD / GDN)
Sat 10:40:13 AM 44.0389 -75.2770 238° Southwest 414 476 41,300 1,043 Climbing FlightAware ADS-B
Sat 10:40:33 AM 44.0236 -75.3108 238° Southwest 417 480 41,500 857 Climbing FlightAware ADS-B
Sat 10:40:41 AM 44.0090 -75.3420 237° Southwest 417 480 41,700 333 Climbing FlightAware ADS-B
Sat 10:41:09 AM 44.0064 -75.3487 242° Southwest 411 473 41,700 833 Level FlightAware ADS-B (EPGD / GDN)
Sat 10:41:17 AM 43.9730 -75.4230 238° Southwest 417 480 42,200 1,600 Climbing FlightAware ADS-B
Sat 10:41:39 AM 43.9534 -75.4657 237° Southwest 409 471 42,500 1,000 Climbing FlightAware ADS-B (EPGD / GDN)
Sat 10:41:47 AM 43.9450 -75.4840 238° Southwest 411 473 42,700 882 Climbing FlightAware ADS-B
Sat 10:42:13 AM 43.9156 -75.5486 238° Southwest 410 472 43,000 290 Climbing FlightAware ADS-B
Sat 10:42:49 AM 43.8832 -75.6199 238° Southwest 416 479 43,000  Level FlightAware ADS-B
Sat 10:43:19 AM 43.8512 -75.6901 238° Southwest 423 487 43,000  Level FlightAware ADS-B
Sat 10:43:54 AM 43.8443 -75.7052 238° Southwest 423 487 43,000  Level FlightAware ADS-B (EPGD / GDN)
Sat 10:43:59 AM 43.8060 -75.7880 237° Southwest 433 498 43,000  Level FlightAware ADS-B
Sat 10:44:24 AM 43.7844 -75.8359 238° Southwest 431 496 43,000  Level FlightAware ADS-B (EPGD / GDN)
Sat 10:44:30 AM 43.7750 -75.8570 238° Southwest 437 503 43,000  Level FlightAware ADS-B
Sat 10:45:05 AM 43.7360 -75.9410 237° Southwest 441 507 43,000  Level FlightAware ADS-B
Sat 10:45:07 AM 43.7330 -75.9476 238° Southwest 441 507 43,000  Level FlightAware ADS-B
Sat 10:45:35 AM 43.7030 -76.0130 238° Southwest 445 512 43,000  Level FlightAware ADS-B
Sat 10:45:41 AM 43.6952 -76.0294 237° Southwest 443 510 43,000  Level FlightAware ADS-B
Sat 10:46:11 AM 43.6660 -76.0920 237° Southwest 441 507 43,000  Level FlightAware ADS-B
Sat 10:46:21 AM 43.6566 -76.1128 238° Southwest 438 504 43,000  Level FlightAware ADS-B
Sat 10:47:00 AM 43.6120 -76.2100 238° Southwest 435 501 43,000  Level FlightAware ADS-B
Sat 10:47:07 AM 43.6284 -76.1736 58° Northeast 434 499 43,000  Level FlightAware ADS-B
Sat 10:47:48 AM 43.5577 -76.3256 237° Southwest 434 499 43,000  Level FlightAware ADS-B
Sat 10:48:20 AM 43.5234 -76.3987 237° Southwest 434 499 43,000  Level FlightAware ADS-B
Sat 10:48:43 AM 43.5000 -76.4490 237° Southwest 433 498 43,000  Level FlightAware ADS-B
Sat 10:48:51 AM 43.4895 -76.4712 237° Southwest 432 497 43,000  Level FlightAware ADS-B
Sat 10:49:34 AM 43.4533 -76.5483 237° Southwest 430 495 43,000  Level FlightAware ADS-B
Sat 10:50:04 AM 43.4108 -76.6385 237° Southwest 432 497 43,000  Level FlightAware ADS-B
Sat 10:50:33 AM 43.3999 -76.6616 237° Southwest 434 499 43,000  Level FlightAware ADS-B (CYYZ)
Sat 10:51:04 AM 43.3759 -76.7122 237° Southwest 436 502 43,000  Level FlightAware ADS-B (CYYZ)
Sat 10:51:07 AM 43.3545 -76.7575 237° Southwest 435 501 43,000  Level FlightAware ADS-B
Sat 10:51:31 AM 43.3199 -76.8303 237° Southwest 434 499 43,000  Level FlightAware ADS-B (CYYZ)
Sat 10:52:01 AM 43.2869 -76.9000 237° Southwest 431 496 43,000  Level FlightAware ADS-B
Sat 10:52:04 AM 43.2799 -76.9146 237° Southwest 432 497 43,000  Level FlightAware ADS-B (CYYZ)
Sat 10:52:11 AM 43.2760 -76.9228 237° Southwest 431 496 43,000  Level FlightAware ADS-B
Sat 10:52:31 AM 43.2557 -76.9653 237° Southwest 432 497 43,000  Level FlightAware ADS-B
Sat 10:52:34 AM 43.2472 -76.9831 237° Southwest 434 499 43,000  Level FlightAware ADS-B (CYYZ)
Sat 10:53:04 AM 43.2145 -77.0513 237° Southwest 434 499 43,000  Level FlightAware ADS-B (CYYZ)
Sat 10:53:22 AM 43.1961 -77.0899 237° Southwest 434 499 43,000  Level FlightAware ADS-B
Sat 10:53:34 AM 43.1860 -77.1110 237° Southwest 436 502 43,000  Level FlightAware ADS-B (CYYZ)
Sat 10:53:53 AM 43.1644 -77.1560 237° Southwest 436 502 43,000  Level FlightAware ADS-B
Sat 10:54:04 AM 43.1482 -77.1896 237° Southwest 438 504 43,000  Level FlightAware ADS-B (CYYZ)
Sat 10:54:23 AM 43.1365 -77.2140 237° Southwest 437 503 43,000  Level FlightAware ADS-B
Sat 10:54:34 AM 43.1143 -77.2601 237° Southwest 438 504 43,000  Level FlightAware ADS-B (CYYZ)
Sat 10:54:55 AM 43.1010 -77.2877 237° Southwest 437 503 43,000  Level FlightAware ADS-B
Sat 10:55:05 AM 43.0812 -77.3286 236° Southwest 437 503 43,000  Level FlightAware ADS-B (CYYZ)
Sat 10:55:28 AM 43.0823 -77.3262 57° Northeast 436 502 43,000  Level FlightAware ADS-B
Sat 10:55:35 AM 43.0489 -77.3956 237° Southwest 436 502 43,000  Level FlightAware ADS-B (CYYZ)
Sat 10:56:02 AM 43.0385 -77.4171 237° Southwest 437 503 43,000  Level FlightAware ADS-B
Sat 10:56:04 AM 43.0147 -77.4661 236° Southwest 437 503 43,000  Level FlightAware ADS-B (CYYZ)
Sat 10:56:33 AM 42.9866 -77.5239 236° Southwest 438 504 43,000  Level FlightAware ADS-B
Sat 10:56:35 AM 42.9830 -77.5313 236° Southwest 439 505 43,000  Level FlightAware ADS-B (CYYZ)
Sat 10:57:03 AM 42.9530 -77.5929 236° Southwest 440 506 43,000  Level FlightAware ADS-B
Sat 10:57:05 AM 42.9483 -77.6026 236° Southwest 441 507 43,000  Level FlightAware ADS-B (CYYZ)
Sat 10:57:10 AM 42.9429 -77.6137 236° Southwest 442 509 43,000  Level FlightAware ADS-B
Sat 10:57:35 AM 42.9137 -77.6734 236° Southwest 443 510 43,000  Level FlightAware ADS-B (CYYZ)
Sat 10:57:54 AM 42.9207 -77.6590 56° Northeast 444 511 43,000  Level FlightAware ADS-B (EPLB / LUZ)
Sat 10:58:04 AM 42.8808 -77.7407 236° Southwest 444 511 43,000  Level FlightAware ADS-B (CYYZ)
Sat 10:58:35 AM 42.8455 -77.8127 236° Southwest 444 511 43,000  Level FlightAware ADS-B (CYYZ)
Sat 10:58:40 AM 42.8391 -77.8256 236° Southwest 444 511 43,000  Level FlightAware ADS-B (EPLB / LUZ)
Sat 10:59:02 AM 42.8140 -77.8766 236° Southwest 445 512 43,000  Level FlightAware ADS-B (CYYZ)
Sat 10:59:23 AM 42.7924 -77.9206 236° Southwest 444 511 43,000  Level FlightAware ADS-B (EPLB / LUZ)
Sat 10:59:35 AM 42.7773 -77.9511 236° Southwest 444 511 43,000  Level FlightAware ADS-B (CYYZ)
Sat 11:00:05 AM 42.7427 -78.0212 236° Southwest 443 510 43,000  Level FlightAware ADS-B (CYYZ)
Sat 11:00:24 AM 42.7268 -78.0534 236° Southwest 442 509 43,000  Level FlightAware ADS-B (EPLB / LUZ)
Sat 11:00:34 AM 42.7095 -78.0884 236° Southwest 444 511 43,000  Level FlightAware ADS-B (CYYZ)
Sat 11:01:04 AM 42.6750 -78.1579 236° Southwest 445 512 43,000  Level FlightAware ADS-B (CYYZ)
Sat 11:01:35 AM 42.6410 -78.2261 236° Southwest 445 512 43,000  Level FlightAware ADS-B (CYYZ)
Sat 11:01:58 AM 42.6160 -78.2764 236° Southwest 445 512 43,000  Level FlightAware ADS-B (EPLB / LUZ)
Sat 11:02:05 AM 42.6052 -78.2981 236° Southwest 446 513 43,000  Level FlightAware ADS-B (CYYZ)
Sat 11:02:35 AM 42.5717 -78.3651 236° Southwest 447 514 43,000  Level FlightAware ADS-B (CYYZ)
Sat 11:02:38 AM 42.5680 -78.3725 236° Southwest 447 514 43,000  Level FlightAware ADS-B (EPLB / LUZ)
Sat 11:03:04 AM 42.5367 -78.4349 236° Southwest 448 516 43,000  Level FlightAware ADS-B (CYYZ)
Sat 11:03:35 AM 42.5246 -78.4589 236° Southwest 449 517 43,000  Level FlightAware ADS-B (CYYZ)
Sat 11:03:49 AM 42.4884 -78.5311 236° Southwest 448 516 43,000  Level FlightAware ADS-B (EPLB / LUZ)
Sat 11:04:04 AM 42.4664 -78.5749 236° Southwest 447 514 43,000  Level FlightAware ADS-B (CYYZ)
Sat 11:04:29 AM 42.4427 -78.6219 236° Southwest 446 513 43,000  Level FlightAware ADS-B
Sat 11:04:35 AM 42.4316 -78.6439 236° Southwest 448 516 43,000  Level FlightAware ADS-B (CYYZ)
Sat 11:05:04 AM 42.3971 -78.7122 236° Southwest 450 518 43,000  Level FlightAware ADS-B (CYYZ)
Sat 11:05:07 AM 42.3938 -78.7187 236° Southwest 449 517 43,000  Level FlightAware ADS-B
Sat 11:05:34 AM 42.3617 -78.7821 236° Southwest 451 519 43,000  Level FlightAware ADS-B (CYYZ)
Sat 11:05:52 AM 42.3436 -78.8178 236° Southwest 451 519 43,000  Level FlightAware ADS-B (EPLB / LUZ)
Sat 11:06:04 AM 42.3388 -78.8271 236° Southwest 453 521 43,000  Level FlightAware ADS-B (CYYZ)
Sat 11:06:35 AM 42.2908 -78.9215 235° Southwest 456 525 43,000  Level FlightAware ADS-B (CYYZ)
Sat 11:06:38 AM 42.2862 -78.9304 235° Southwest 455 524 43,000  Level FlightAware ADS-B
Sat 11:07:05 AM 42.2548 -78.9921 235° Southwest 457 526 43,000  Level FlightAware ADS-B (CYYZ)
Sat 11:07:25 AM 42.2574 -78.9869 56° Northeast 457 526 43,000  Level FlightAware ADS-B (EPLB / LUZ)
Sat 11:07:35 AM 42.2192 -79.0617 235° Southwest 457 526 43,000  Level FlightAware ADS-B (CYYZ)
Sat 11:07:57 AM 42.2108 -79.0781 235° Southwest 457 526 43,000  Level FlightAware ADS-B (EPLB / LUZ)
Sat 11:08:04 AM 42.1830 -79.1321 235° Southwest 458 527 43,000  Level FlightAware ADS-B (CYYZ)
Sat 11:08:35 AM 42.1457 -79.2005 234° Southwest 459 528 43,000  Level FlightAware ADS-B (CYYZ)
Sat 11:08:38 AM 42.1780 -79.1413 54° Northeast 459 528 43,000  Level FlightAware ADS-B (EPLB / LUZ)
Sat 11:09:05 AM 42.1084 -79.2697 234° Southwest 460 529 43,000  Level FlightAware ADS-B (CYYZ)
Sat 11:09:09 AM 42.1780 -79.1413 54° Northeast 459 528 43,000  Level FlightAware ADS-B (EPLB / LUZ)
Sat 11:09:34 AM 42.0720 -79.3372 234° Southwest 454 522 43,000  Level FlightAware ADS-B (CYYZ)
Sat 11:10:04 AM 42.0346 -79.4062 234° Southwest 449 517 43,000  Level FlightAware ADS-B (CYYZ)
Sat 11:10:21 AM 42.0233 -79.4268 234° Southwest 449 517 43,000  Level FlightAware ADS-B (EPLB / LUZ)
Sat 11:10:35 AM 41.9982 -79.4732 234° Southwest 450 518 43,000  Level FlightAware ADS-B (CYYZ)
Sat 11:11:02 AM 41.9646 -79.5348 234° Southwest 449 517 43,000  Level FlightAware ADS-B (EPLB / LUZ)
Sat 11:11:04 AM 41.9609 -79.5416 234° Southwest 451 519 43,000  Level FlightAware ADS-B (CYYZ)
Sat 11:11:34 AM 41.9462 -79.5686 234° Southwest 450 518 43,000  Level FlightAware ADS-B (EPLB / LUZ)
Sat 11:11:35 AM 41.9248 -79.6077 234° Southwest 451 519 43,000  Level FlightAware ADS-B (CYYZ)
Sat 11:12:05 AM 41.8873 -79.6762 234° Southwest 453 521 43,000  Level FlightAware ADS-B (CYYZ)
Sat 11:12:10 AM 41.8816 -79.6866 234° Southwest 453 521 43,000  Level FlightAware ADS-B (EPLB / LUZ)
Sat 11:12:34 AM 41.8502 -79.7439 234° Southwest 454 522 43,000  Level FlightAware ADS-B (CYYZ)
Sat 11:12:46 AM 41.8363 -79.7692 233° Southwest 453 521 43,000  Level FlightAware ADS-B (EPLB / LUZ)
Sat 11:13:05 AM 41.8127 -79.8120 234° Southwest 454 522 43,000  Level FlightAware ADS-B (CYYZ)
Sat 11:13:26 AM 41.7871 -79.8585 234° Southwest 453 521 43,000  Level FlightAware ADS-B (EPLB / LUZ)
Sat 11:13:34 AM 41.7764 -79.8779 234° Southwest 454 522 43,000  Level FlightAware ADS-B (CYYZ)
Sat 11:14:04 AM 41.7383 -79.9468 234° Southwest 454 522 43,000  Level FlightAware ADS-B (CYYZ)
Sat 11:14:35 AM 41.7004 -80.0153 233° Southwest 455 524 43,000  Level FlightAware ADS-B (CYYZ)
Sat 11:15:05 AM 41.6645 -80.0802 233° Southwest 456 525 43,000  Level FlightAware ADS-B (CYYZ)
Sat 11:15:35 AM 41.6258 -80.1496 233° Southwest 457 526 43,000  Level FlightAware ADS-B (CYYZ)
Sat 11:16:05 AM 41.5879 -80.2176 233° Southwest 457 526 43,000  Level FlightAware ADS-B (CYYZ)
Sat 11:16:34 AM 41.5508 -80.2839 233° Southwest 458 527 43,000  Level FlightAware ADS-B (CYYZ)
Sat 11:16:56 AM 41.5380 -80.3069 233° Southwest 459 528 43,000  Level FlightAware ADS-B (CYYZ)
Sat 11:17:24 AM 41.5143 -80.3494 233° Southwest 458 527 43,000  Level FlightAware ADS-B (EPLB / LUZ)
Sat 11:18:29 AM 41.4207 -80.5159 233° Southwest 459 528 43,000  Level FlightAware ADS-B (CYYZ)
Sat 11:18:35 AM 41.4126 -80.5303 233° Southwest 456 525 43,000  Level FlightAware ADS-B (EPLB / LUZ)
Sat 11:19:05 AM 41.3704 -80.6050 233° Southwest 457 526 43,000  Level FlightAware ADS-B (CYYZ)
Sat 11:19:18 AM 41.3435 -80.6524 233° Southwest 458 527 43,000  Level FlightAware ADS-B (EPLB / LUZ)
Sat 11:19:39 AM 41.3130 -80.6971 228° Southwest 461 531 43,000  Level FlightAware ADS-B (CYYZ)
Sat 11:19:53 AM 41.3145 -80.6951 45° Northeast 460 529 43,000  Level FlightAware ADS-B (EPLB / LUZ)
Sat 11:20:09 AM 41.2686 -80.7555 225° Southwest 461 531 43,000  Level FlightAware ADS-B (CYYZ)
Sat 11:20:39 AM 41.2222 -80.8157 224° Southwest 459 528 43,000  Level FlightAware ADS-B (CYYZ)
Sat 11:20:40 AM 41.2258 -80.8109 45° Northeast 458 527 43,000  Level FlightAware ADS-B (EPLB / LUZ)
Sat 11:21:09 AM 41.1772 -80.8740 224° Southwest 457 526 43,000  Level FlightAware ADS-B (CYYZ)
Sat 11:21:13 AM 41.1741 -80.8779 224° Southwest 456 525 43,000  Level FlightAware ADS-B (EPLB / LUZ)
Sat 11:21:39 AM 41.1313 -80.9332 224° Southwest 457 526 43,000  Level FlightAware ADS-B (CYYZ)
Sat 11:21:49 AM 41.1298 -80.9351 224° Southwest 457 526 43,000  Level FlightAware ADS-B (EPLB / LUZ)
Sat 11:22:10 AM 41.0874 -80.9896 224° Southwest 458 527 43,000  Level FlightAware ADS-B (CYYZ)
Sat 11:22:24 AM 41.0953 -80.9795 44° Northeast 458 527 43,000  Level FlightAware ADS-B (EPLB / LUZ)
Sat 11:22:40 AM 41.0674 -81.0154 224° Southwest 459 528 43,000  Level FlightAware ADS-B (CYYZ)
Sat 11:23:04 AM 41.0124 -81.0860 224° Southwest 458 527 43,000  Level FlightAware ADS-B (EPLB / LUZ)
Sat 11:23:10 AM 40.9951 -81.1082 224° Southwest 460 529 43,000  Level FlightAware ADS-B (CYYZ)
Sat 11:23:40 AM 40.9528 -81.1622 224° Southwest 456 525 43,000  Level FlightAware ADS-B (CYYZ)
Sat 11:24:09 AM 40.9203 -81.2039 224° Southwest 454 522 43,000  Level FlightAware ADS-B (CYYZ)
Sat 11:24:15 AM 40.8962 -81.2346 224° Southwest 453 521 43,000  Level FlightAware ADS-B (EPLB / LUZ)
Sat 11:24:30 AM 40.8787 -81.2568 224° Southwest 454 522 43,000  Level FlightAware ADS-B (CYYZ)
Sat 11:24:48 AM 40.8471 -81.2971 224° Southwest 455 524 43,000  Level FlightAware ADS-B (EPLB / LUZ)
Sat 11:25:39 AM 40.7694 -81.3958 224° Southwest 453 521 43,000  Level FlightAware ADS-B (CYYZ)
Sat 11:26:05 AM 40.7340 -81.4479 228° Southwest 442 509 43,000  Level FlightAware ADS-B (CYYZ)
Sat 11:26:44 AM 40.6942 -81.5256 236° Southwest 437 503 43,000  Level FlightAware ADS-B (CYYZ)
Sat 11:27:14 AM 40.6654 -81.5828 236° Southwest 434 499 43,000  Level FlightAware ADS-B (CYYZ)
Sat 11:28:39 AM 40.5620 -81.7873 236° Southwest 436 502 43,000  Level FlightAware ADS-B (EPLB / LUZ)
Sat 11:29:23 AM 40.5140 -81.8819 236° Southwest 436 502 43,000  Level FlightAware ADS-B (EPLB / LUZ)
Sat 11:34:09 AM 40.1974 -82.4990 236° Southwest 434 499 43,000  Level FlightAware ADS-B (EGOD)
Sat 11:34:50 AM 40.1496 -82.5911 236° Southwest 437 503 43,000  Level FlightAware ADS-B (EGOD)
Sat 11:35:50 AM 40.0804 -82.7243 236° Southwest 440 506 43,000  Level FlightAware ADS-B (EGOD)
Sat 11:36:30 AM 40.0475 -82.7873 236° Southwest 439 505 43,000  Level FlightAware ADS-B (EGOD)
Sat 11:37:10 AM 39.9904 -82.8964 236° Southwest 439 505 43,000  Level FlightAware ADS-B (EGOD)
Sat 11:39:23 AM 39.8408 -83.1806 236° Southwest 440 506 43,000  Level FlightAware ADS-B
Sat 11:41:07 AM 39.7156 -83.4164 235° Southwest 442 509 43,000  Level FlightAware ADS-B
Sat 11:41:45 AM 39.6714 -83.4993 235° Southwest 442 509 43,000  Level FlightAware ADS-B
Sat 11:42:19 AM 39.6411 -83.5562 235° Southwest 441 507 43,000  Level FlightAware ADS-B
Sat 11:42:49 AM 39.5979 -83.6367 235° Southwest 441 507 43,000  Level FlightAware ADS-B
Sat 11:43:27 AM 39.5555 -83.7155 235° Southwest 442 509 43,000  Level FlightAware ADS-B
Sat 11:44:06 AM 39.5078 -83.8041 235° Southwest 443 510 43,000  Level FlightAware ADS-B
Sat 11:44:40 AM 39.4774 -83.8605 235° Southwest 444 511 43,000  Level FlightAware ADS-B
Sat 11:45:18 AM 39.4270 -83.9538 235° Southwest 443 510 43,000  Level FlightAware ADS-B
Sat 11:45:53 AM 39.3915 -84.0192 235° Southwest 444 511 43,000  Level FlightAware ADS-B
Sat 11:46:31 AM 39.3370 -84.1193 235° Southwest 444 511 43,000  Level FlightAware ADS-B
Sat 11:47:04 AM 39.3103 -84.1684 235° Southwest 446 513 43,000  Level FlightAware ADS-B
Sat 11:47:35 AM 39.2661 -84.2492 235° Southwest 448 516 43,000  Level FlightAware ADS-B
Sat 11:48:05 AM 39.2271 -84.3203 235° Southwest 451 519 43,000  Level FlightAware ADS-B
Sat 11:48:43 AM 39.1912 -84.3859 235° Southwest 448 516 43,000  Level FlightAware ADS-B
Sat 11:49:13 AM 39.1435 -84.4726 235° Southwest 446 513 43,000  Level FlightAware ADS-B
Sat 11:49:46 AM 39.1049 -84.5425 235° Southwest 446 513 43,000  Level FlightAware ADS-B
Sat 11:50:53 AM 39.0264 -84.6830 234° Southwest 449 517 43,000  Level FlightAware ADS-B
Sat 11:50:57 AM 39.0256 -84.6842 228° Southwest 453 521 43,000  Level FlightAware ADS-B
Sat 11:51:28 AM 38.9934 -84.7247 224° Southwest 458 527 43,000  Level FlightAware ADS-B (KCVG)
Sat 11:51:58 AM 38.9934 -84.7247 224° Southwest 460 529 43,000  Level FlightAware ADS-B (KCVG)
Sat 11:52:41 AM 38.8507 -84.8638 217° Southwest 459 528 43,000  Level FlightAware ADS-B
Sat 11:53:13 AM 38.8226 -84.8910 217° Southwest 460 529 43,000  Level FlightAware ADS-B (KCVG)
Sat 11:53:45 AM 38.7441 -84.9668 217° Southwest 459 528 43,000  Level FlightAware ADS-B
Sat 11:54:15 AM 38.6899 -85.0104 212° Southwest 460 529 43,000  Level FlightAware ADS-B
Sat 11:54:48 AM 38.6240 -85.0559 208° Southwest 462 532 43,000  Level FlightAware ADS-B (KCVG)
Sat 11:55:25 AM 38.5517 -85.1051 208° Southwest 460 529 43,000  Level FlightAware ADS-B (KCVG)
Sat 11:56:06 AM 38.4832 -85.1515 208° Southwest 458 527 43,000  Level FlightAware ADS-B (KCVG)
Sat 11:56:36 AM 38.4177 -85.1959 208° Southwest 459 528 43,000  Level FlightAware ADS-B (KCVG)
Sat 11:57:14 AM 38.3958 -85.2107 208° Southwest 464 534 43,000  Level FlightAware ADS-B (KCVG)
Sat 11:59:29 AM 38.0995 -85.4099 208° Southwest 462 532 43,000  Level FlightAware ADS-B
Sat 12:00:31 PM 37.9730 -85.4944 208° Southwest 459 528 43,000  Level FlightAware ADS-B
Sat 12:01:29 PM 37.9219 -85.5285 208° Southwest 459 528 43,000  Level FlightAware ADS-B
Sat 12:02:31 PM 37.7448 -85.6346 205° Southwest 469 540 43,000  Level FlightAware ADS-B
Sat 12:03:30 PM 37.6277 -85.6809 197° South 461 531 43,000  Level FlightAware ADS-B
Sat 12:04:30 PM 37.5016 -85.7316 198° South 457 526 43,000  Level FlightAware ADS-B
Sat 12:05:31 PM 37.3960 -85.8022 208° Southwest 447 514 43,000  Level FlightAware ADS-B
Sat 12:06:31 PM 37.2886 -85.8786 210° Southwest 450 518 43,000  Level FlightAware ADS-B
Sat 12:07:31 PM 37.1730 -85.9607 210° Southwest 451 519 43,000  Level FlightAware ADS-B
Sat 12:08:24 PM 37.0848 -86.0232 209° Southwest 448 516 43,000  Level FlightAware ADS-B
Sat 12:09:30 PM 36.9599 -86.1114 209° Southwest 447 514 43,000  Level FlightAware ADS-B
Sat 12:10:31 PM 36.8569 -86.1839 209° Southwest 449 517 43,000  Level FlightAware ADS-B
Sat 12:11:15 PM 36.7749 -86.2416 209° Southwest 446 513 43,000  Level FlightAware ADS-B
Sat 12:12:58 PM 36.6250 -86.3465 209° Southwest 441 507 43,000  Level FlightAware ADS-B
Sat 12:14:03 PM 36.5693 -86.3853 209° Southwest 437 503 43,000  Level FlightAware ADS-B
Sat 12:18:48 PM 35.9652 -86.7859 208° Southwest 447 514 43,000  Level FlightAware ADS-B (KMDQ)
Sat 12:19:28 PM 35.9009 -86.8240 206° Southwest 445 512 43,000  Level FlightAware ADS-B (KMDQ)
Sat 12:20:08 PM 35.8304 -86.8657 206° Southwest 448 516 43,000  Level FlightAware ADS-B (KMDQ)
Sat 12:20:48 PM 35.7607 -86.9067 205° Southwest 449 517 43,000  Level FlightAware ADS-B (KMDQ)
Sat 12:21:28 PM 35.6651 -86.9627 205° Southwest 447 514 43,000  Level FlightAware ADS-B (KMDQ)
Sat 12:22:08 PM 35.5932 -87.0048 205° Southwest 449 517 43,000  Level FlightAware ADS-B (KMDQ)
Sat 12:22:48 PM 35.5476 -87.0314 205° Southwest 446 513 43,000  Level FlightAware ADS-B (KMDQ)
Sat 12:23:28 PM 35.4456 -87.0909 205° Southwest 438 504 43,000  Level FlightAware ADS-B (KMDQ)
Sat 12:24:08 PM 35.3643 -87.1381 205° Southwest 438 504 43,000  Level FlightAware ADS-B (KMDQ)
Sat 12:24:49 PM 35.3250 -87.1609 205° Southwest 442 509 43,000  Level FlightAware ADS-B (KMDQ)
Sat 12:25:28 PM 35.2232 -87.2198 205° Southwest 439 505 43,000  Level FlightAware ADS-B (KMDQ)
Sat 12:26:28 PM 35.1094 -87.2855 205° Southwest 437 503 43,000  Level FlightAware ADS-B (KMDQ)
Sat 12:27:08 PM 35.0399 -87.3255 205° Southwest 434 499 43,000  Level FlightAware ADS-B (KMDQ)
Sat 12:27:48 PM 34.9618 -87.3704 205° Southwest 435 501 43,000  Level FlightAware ADS-B (KMDQ)
Sat 12:28:28 PM 34.9095 -87.4004 205° Southwest 434 499 43,000  Level FlightAware ADS-B (KMDQ)
Sat 12:29:07 PM 34.8230 -87.4499 205° Southwest 434 499 43,000  Level FlightAware ADS-B (KMDQ)
Sat 12:29:48 PM 34.7438 -87.4951 205° Southwest 434 499 43,000  Level FlightAware ADS-B (KMDQ)
Sat 12:30:23 PM 34.6890 -87.5264 205° Southwest 434 499 43,000  Level FlightAware ADS-B (KMDQ)
Sat 12:31:28 PM 34.5675 -87.5956 205° Southwest 437 503 43,000  Level FlightAware ADS-B (KMDQ)
Sat 12:32:29 PM 34.4526 -87.6606 205° Southwest 436 502 43,000  Level FlightAware ADS-B (KMDQ)
Sat 12:33:08 PM 34.3835 -87.6998 205° Southwest 438 504 43,000  Level FlightAware ADS-B (KMDQ)
Sat 12:33:47 PM 34.3324 -87.7287 205° Southwest 441 507 43,000  Level FlightAware ADS-B (KMDQ)
Sat 12:34:28 PM 34.2410 -87.7801 205° Southwest 443 510 43,000  Level FlightAware ADS-B (KMDQ)
Sat 12:35:08 PM 34.1827 -87.8130 205° Southwest 445 512 43,000  Level FlightAware ADS-B (KMDQ)
Sat 12:35:53 PM 34.0756 -87.8733 205° Southwest 442 509 43,000  Level Memphis Center
Sat 12:36:55 PM 33.9628 -87.9361 205° Southwest 445 512 43,000  Level Memphis Center
Sat 12:37:57 PM 33.8497 -87.9986 205° Southwest 446 513 43,000  Level Memphis Center
Sat 12:38:59 PM 33.7367 -88.0614 205° Southwest 447 514 43,000  Level Memphis Center
Sat 12:40:01 PM 33.6250 -88.1231 205° Southwest 444 511 43,000  Level Memphis Center
Sat 12:41:02 PM 33.5125 -88.1853 205° Southwest 445 512 43,000  Level Memphis Center
Sat 12:42:04 PM 33.4050 -88.2453 205° Southwest 443 510 43,000  Level Memphis Center
Sat 12:43:06 PM 33.2719 -88.3186 205° Southwest 441 507 43,000  Level Memphis Center
Sat 12:44:08 PM 33.1600 -88.3792 204° Southwest 441 507 43,000  Level Memphis Center
Sat 12:45:10 PM 33.0492 -88.4397 205° Southwest 441 507 43,000  Level Memphis Center
Sat 12:46:11 PM 32.9372 -88.5003 204° Southwest 441 507 43,000  Level Memphis Center
Sat 12:47:13 PM 32.8264 -88.5611 205° Southwest 440 506 43,000  Level Memphis Center
Sat 12:48:15 PM 32.6933 -88.6336 205° Southwest 439 505 43,000  Level Memphis Center
Sat 12:49:17 PM 32.5789 -88.6944 204° Southwest 446 513 43,000  Level Memphis Center
Sat 12:50:19 PM 32.4656 -88.7561 205° Southwest 448 516 43,000  Level Memphis Center
Sat 12:51:20 PM 32.3603 -88.8311 211° Southwest 446 513 43,000  Level Memphis Center
Sat 12:52:22 PM 32.2822 -88.9364 229° Southwest 432 497 43,000  Level Memphis Center
Sat 12:53:24 PM 32.2064 -89.0408 229° Southwest 424 488 43,000  Level Memphis Center
Sat 12:54:26 PM 32.1133 -89.1681 229° Southwest 425 489 43,000  Level Memphis Center
Sat 12:55:28 PM 32.0358 -89.2733 229° Southwest 426 490 43,000  Level Memphis Center
Sat 12:56:30 PM 31.9589 -89.3797 230° Southwest 427 491 43,000  Level Memphis Center
Sat 12:57:31 PM 31.8822 -89.4833 229° Southwest 424 488 43,000  Level Memphis Center
Sat 12:58:08 PM 31.8444 -89.5353 229° Southwest 422 486 43,000  Level Houston Center
Sat 12:59:11 PM 31.7611 -89.6475 229° Southwest 424 488 43,000  Level Houston Center
Sat 01:00:12 PM 31.6842 -89.7506 229° Southwest 421 484 43,000  Level Houston Center
Sat 01:01:15 PM 31.5919 -89.8739 229° Southwest 421 484 43,000  Level Houston Center
Sat 01:02:16 PM 31.5150 -89.9781 229° Southwest 423 487 43,000  Level Houston Center
Sat 01:03:20 PM 31.4375 -90.0817 229° Southwest 425 489 43,000  Level Houston Center
Sat 01:04:21 PM 31.3597 -90.1847 229° Southwest 424 488 43,000  Level Houston Center
Sat 01:05:24 PM 31.2658 -90.2717 218° Southwest 438 504 43,000  Level Houston Center
Sat 01:06:25 PM 31.1181 -90.3247 197° South 463 533 43,000  Level Houston Center
Sat 01:07:27 PM 30.9942 -90.3672 196° South 466 536 43,000  Level Houston Center
Sat 01:12:52 PM 30.3225 -90.6024 196° South 452 520 43,000  Level FlightAware ADS-B (KHOU)
Sat 01:13:21 PM 30.3105 -90.6066 197° South 452 520 43,000  Level FlightAware ADS-B (KHOU)
Sat 01:13:51 PM 30.2017 -90.6443 197° South 455 524 43,000  Level FlightAware ADS-B (KHOU)
Sat 01:14:15 PM 30.1671 -90.6562 197° South 456 525 43,000  Level FlightAware ADS-B (KHOU)
Sat 01:17:26 PM 29.7749 -90.7912 197° South 451 519 43,000  Level FlightAware ADS-B (KHOU)
Sat 01:17:57 PM 29.7509 -90.7994 197° South 452 520 43,000  Level FlightAware ADS-B (KHOU)
Sat 01:18:32 PM 29.6504 -90.8521 205° Southwest 435 501 43,000  Level FlightAware ADS-B (KHOU)
Sat 01:19:09 PM 29.6013 -90.9072 224° Southwest 422 486 43,000  Level FlightAware ADS-B (KHOU)
Sat 01:19:51 PM 29.5411 -90.9810 227° Southwest 420 483 43,000  Level FlightAware ADS-B (KHOU)
Sat 01:20:22 PM 29.5004 -91.0309 227° Southwest 419 482 43,000  Level FlightAware ADS-B (KHOU)
Sat 01:20:51 PM 29.4967 -91.0354 227° Southwest 420 483 43,000  Level FlightAware ADS-B (KHOU)
Sat 01:21:15 PM 29.4373 -91.1080 227° Southwest 421 484 43,000  Level FlightAware ADS-B (KHOU)
Sat 01:23:04 PM 29.2859 -91.2928 227° Southwest 419 482 43,000  Level FlightAware ADS-B (KHOU)
Sat 01:23:36 PM 29.2436 -91.3444 227° Southwest 417 480 43,000  Level FlightAware ADS-B (KHOU)
Sat 01:24:07 PM 29.2045 -91.3919 227° Southwest 414 476 43,000  Level FlightAware ADS-B (KHOU)
Sat 01:24:37 PM 29.1691 -91.4349 227° Southwest 416 479 43,000  Level FlightAware ADS-B (KHOU)
Sat 01:25:07 PM 29.1238 -91.4899 227° Southwest 416 479 43,000  Level FlightAware ADS-B (KHOU)
Sat 01:25:37 PM 29.0859 -91.5357 227° Southwest 414 476 43,000  Level FlightAware ADS-B (KHOU)
Sat 01:26:06 PM 29.0636 -91.5627 227° Southwest 414 476 43,000  Level FlightAware ADS-B (KHOU)
Sat 01:26:37 PM 29.0372 -91.5947 227° Southwest 414 476 43,000  Level FlightAware ADS-B (KHOU)
Sat 01:27:07 PM 28.9672 -91.6792 227° Southwest 415 478 43,000  Level FlightAware ADS-B (KHOU)
Sat 01:27:36 PM 28.9301 -91.7239 227° Southwest 415 478 43,000  Level FlightAware ADS-B (KHOU)
Sat 01:28:06 PM 28.8894 -91.7729 227° Southwest 413 475 43,000  Level FlightAware ADS-B (KHOU)
Sat 01:28:30 PM 28.8766 -91.7884 226° Southwest 414 476 43,000  Level FlightAware ADS-B (KHOU)
Sat 01:29:07 PM 28.8344 -91.8391 227° Southwest 417 480 43,000  Level FlightAware ADS-B (KHOU)
Sat 01:29:36 PM 28.7685 -91.9182 226° Southwest 417 480 43,000  Level FlightAware ADS-B (KHOU)
Sat 01:30:07 PM 28.7287 -91.9659 226° Southwest 418 481 43,000  Level FlightAware ADS-B (KHOU)
Sat 01:30:37 PM 28.6894 -92.0131 226° Southwest 419 482 43,000  Level FlightAware ADS-B (KHOU)
Sat 01:31:07 PM 28.6491 -92.0611 226° Southwest 419 482 43,000  Level FlightAware ADS-B (KHOU)
Sat 01:31:20 PM 28.6327 -92.0808 226° Southwest 418 481 43,000  Level FlightAware ADS-B (KHOU)
Sat 01:32:51 PM 28.4993 -92.2153 222° Southwest 430 495 43,000  Level FlightAware ADS-B (KHOU)
Sat 01:33:22 PM 28.4535 -92.2527 216° Southwest 430 495 43,000  Level FlightAware ADS-B (KHOU)
Sat 01:39:42 PM 27.8465 -92.7437 216° Southwest 435 501 43,000  Level FlightAware ADS-B (KHOU)
Sat 01:40:12 PM 27.7929 -92.7866 215° Southwest 434 499 43,000  Level FlightAware ADS-B (KHOU)
Sat 01:41:42 PM 27.6408 -92.9084 215° Southwest 435 501 43,000  Level FlightAware ADS-B (KHOU)
Sat 01:42:12 PM 27.5887 -92.9500 215° Southwest 434 499 43,000  Level FlightAware ADS-B (KHOU)
Sat 01:42:40 PM 27.5776 -92.9589 215° Southwest 434 499 43,000  Level FlightAware ADS-B (KHOU)
Sat 01:43:12 PM 27.5191 -93.0056 215° Southwest 434 499 43,000  Level FlightAware ADS-B (KHOU)
Sat 01:45:10 PM 27.2989 -93.1806 215° Southwest 433 498 43,000  Level FlightAware ADS-B (KHOU)
Sat 01:45:41 PM 27.2458 -93.2226 215° Southwest 434 499 43,000  Level FlightAware ADS-B (KHOU)
Sat 01:46:12 PM 27.2072 -93.2532 215° Southwest 434 499 43,000  Level FlightAware ADS-B (KHOU)
Sat 01:46:41 PM 27.1586 -93.2916 215° Southwest 436 502 43,000  Level FlightAware ADS-B (KHOU)
Sat 01:47:39 PM 27.0577 -93.3713 215° Southwest 438 504 43,000  Level FlightAware ADS-B (KHOU)
Sat 01:48:36 PM 26.9579 -93.4499 215° Southwest 436 502 43,000  Level FlightAware ADS-B (KHOU)
Sat 01:49:40 PM 26.8773 -93.5132 215° Southwest 436 502 43,000  Level FlightAware ADS-B (KHOU)
Sat 01:52:12 PM 26.6034 -93.7278 215° Southwest 435 501 43,000  Level FlightAware ADS-B (KHOU)
Sat 01:52:41 PM 26.5539 -93.7664 215° Southwest 436 502 43,000  Level FlightAware ADS-B (KHOU)
Sat 01:53:21 PM 26.4849 -93.8130 211° Southwest 436 502 43,000  Level FlightAware ADS-B (KHOU)
Sat 01:53:51 PM 26.4408 -93.8427 211° Southwest 435 501 43,000  Level FlightAware ADS-B (KHOU)
Sat 01:54:21 PM 26.3854 -93.8802 211° Southwest 436 502 43,000  Level FlightAware ADS-B (KHOU)
Sat 01:54:51 PM 26.3307 -93.9170 211° Southwest 438 504 43,000  Level FlightAware ADS-B (KHOU)
Sat 01:55:21 PM 26.2777 -93.9527 211° Southwest 438 504 43,000  Level FlightAware ADS-B (KHOU)
Sat 01:55:51 PM 26.2277 -93.9862 211° Southwest 436 502 43,000  Level FlightAware ADS-B (KHOU)
Sat 01:56:12 PM 26.1936 -94.0091 211° Southwest 436 502 43,000  Level FlightAware ADS-B (KHOU)
Sat 01:57:51 PM 26.0378 -94.1133 211° Southwest 436 502 43,000  Level FlightAware ADS-B (KHOU)
Sat 01:58:22 PM 25.9673 -94.1604 211° Southwest 437 503 43,000  Level FlightAware ADS-B (KHOU)
Sat 01:58:49 PM 25.9274 -94.1869 211° Southwest 438 504 43,000  Level FlightAware ADS-B (KHOU)
Sat 01:59:21 PM 25.8619 -94.2305 211° Southwest 437 503 43,000  Level FlightAware ADS-B (KHOU)
Sat 01:59:50 PM 25.8127 -94.2632 211° Southwest 437 503 43,000  Level FlightAware ADS-B (KHOU)
Sat 02:00:21 PM 25.7578 -94.2996 211° Southwest 438 504 43,000  Level FlightAware ADS-B (KHOU)
Sat 02:00:49 PM 25.7161 -94.3273 211° Southwest 438 504 43,000  Level FlightAware ADS-B (KHOU)
Sat 02:01:51 PM 25.6013 -94.4033 211° Southwest 440 506 43,000  Level FlightAware ADS-B (KHOU)
Sat 02:02:21 PM 25.5504 -94.4370 211° Southwest 440 506 43,000  Level FlightAware ADS-B (KHOU)
Sat 02:02:46 PM 25.5061 -94.4662 211° Southwest 440 506 43,000  Level FlightAware ADS-B (KHOU)
Sat 02:03:51 PM 25.3926 -94.5411 211° Southwest 435 501 43,000  Level FlightAware ADS-B (KHOU)
Sat 02:04:15 PM 25.3585 -94.5636 211° Southwest 432 497 43,000 -81 Level FlightAware ADS-B (KHOU)
Sat 02:41:04 PM 21.4543 -96.9531 212° Southwest 440 506 40,000 -79 Descending FlightAware ADS-B (DTMB / MIR)
Sat 02:42:19 PM 21.3325 -97.0252 209° Southwest 446 513 40,000  Level FlightAware ADS-B (DTMB / MIR)
Sat 02:43:03 PM 21.2408 -97.0794 209° Southwest 446 513 40,000  Level FlightAware ADS-B (DTMB / MIR)
Sat 02:43:44 PM 21.1669 -97.1228 209° Southwest 445 512 40,000  Level FlightAware ADS-B (DTMB / MIR)
Sat 02:44:23 PM 21.1019 -97.1611 209° Southwest 445 512 40,000  Level FlightAware ADS-B (DTMB / MIR)
Sat 02:45:44 PM 20.9620 -97.2434 209° Southwest 440 506 40,000  Level FlightAware ADS-B (DTMB / MIR)
Sat 02:46:23 PM 20.8825 -97.2901 209° Southwest 441 507 40,000  Level FlightAware ADS-B (DTMB / MIR)
Sat 02:47:03 PM 20.8413 -97.3142 209° Southwest 442 509 40,000  Level FlightAware ADS-B (DTMB / MIR)
Sat 02:47:44 PM 20.7502 -97.3676 209° Southwest 440 506 40,000 -450 Level FlightAware ADS-B (DTMB / MIR)
Sat 02:48:23 PM 20.6715 -97.4136 209° Southwest 440 506 39,400 -1,215 Descending FlightAware ADS-B (DTMB / MIR)
Sat 02:49:03 PM 20.5953 -97.4621 211° Southwest 447 514 38,400 -2,127 Descending FlightAware ADS-B (DTMB / MIR)
Sat 02:49:42 PM 20.5463 -97.5089 222° Southwest 462 532 36,600 -2,911 Descending FlightAware ADS-B (DTMB / MIR)
Sat 02:50:44 PM 20.4380 -97.6157 223° Southwest 466 536 33,500 -3,000 Descending FlightAware ADS-B (DTMB / MIR)
Sat 02:51:24 PM 20.3756 -97.6771 223° Southwest 468 539 31,500 -3,037 Descending FlightAware ADS-B (DTMB / MIR)
Sat 02:52:05 PM 20.3088 -97.7427 223° Southwest 466 536 29,400 -3,037 Descending FlightAware ADS-B (DTMB / MIR)
Sat 02:52:45 PM 20.2526 -97.7978 223° Southwest 461 531 27,400 -2,925 Descending FlightAware ADS-B (DTMB / MIR)
Sat 02:53:25 PM 20.1827 -97.8665 223° Southwest 455 524 25,500 -2,925 Descending FlightAware ADS-B (DTMB / MIR)
Sat 02:54:05 PM 20.1225 -97.9255 223° Southwest 448 516 23,500 -2,925 Descending FlightAware ADS-B (DTMB / MIR)
Sat 02:54:45 PM 20.0674 -97.9794 223° Southwest 442 509 21,600 -3,075 Descending FlightAware ADS-B (DTMB / MIR)
Sat 02:55:25 PM 20.0013 -98.0440 223° Southwest 432 497 19,400 -3,000 Descending FlightAware ADS-B (DTMB / MIR)
Sat 02:56:05 PM 19.9421 -98.1018 223° Southwest 415 478 17,600 -2,593 Descending FlightAware ADS-B (DTMB / MIR)
Sat 02:56:46 PM 19.8872 -98.1553 223° Southwest 398 458 15,900 -1,407 Descending FlightAware ADS-B (DTMB / MIR)
Sat 02:57:26 PM 19.8412 -98.2002 223° Southwest 333 383 15,700 -150 Descending FlightAware ADS-B (DTMB / MIR)
Sat 02:58:06 PM 19.7934 -98.2468 223° Southwest 299 344 15,700  Level FlightAware ADS-B (DTMB / MIR)
Sat 02:58:45 PM 19.7558 -98.2834 223° Southwest 297 342 15,700 -300 Level FlightAware ADS-B (DTMB / MIR)
Sat 02:59:26 PM 19.7158 -98.3223 222° Southwest 273 314 15,300 -1,037 Descending FlightAware ADS-B (DTMB / MIR)
Sat 03:00:06 PM 19.6772 -98.3598 222° Southwest 270 311 14,300 -1,500 Descending FlightAware ADS-B (DTMB / MIR)
Sat 03:00:46 PM 19.6542 -98.3821 222° Southwest 263 303 13,300 -1,275 Descending FlightAware ADS-B (DTMB / MIR)
Sat 03:01:26 PM 19.6112 -98.4245 223° Southwest 259 298 12,600 -800 Descending FlightAware ADS-B (DTMB / MIR)
Sat 03:01:46 PM 19.5933 -98.4348 208° Southwest 243 280 12,500 -300 Descending FlightAware ADS-B (DTMB / MIR)
Sat 03:04:00 PM 19.3316 -98.3967 172° South  Level Estimated
Sat 03:05:00 PM 19.2145 -98.3796 172° South  Level Estimated
Sat 03:06:00 PM 19.1581 -98.3715 172° South  Level Estimated
Sat 03:07:00 PM 19.1581 -98.3715 35° Northeast  Level Estimated
Sat 03:08:00 PM 19.1581 -98.3715 35° Northeast  Level Estimated
Sat 03:09:00 PM 19.1581 -98.3715 35° Northeast  Level Estimated
Sat 03:10:00 PM 19.1581 -98.3715 35° Northeast  Level Estimated
Sat 03:11:00 PM 19.1581 -98.3715 35° Northeast  Level Estimated
Sat 03:12:00 PM 19.1581 -98.3715 35° Northeast  Level Estimated
Sat 03:13:00 PM 19.1581 -98.3715 35° Northeast  Level Estimated
Sat 03:14:00 PM 19.1581 -98.3715 35° Northeast  Level Estimated
Sat 03:15:00 PM 19.1581 -98.3715 35° Northeast  Level Estimated
Sat 03:16:00 PM 19.1581 -98.3715 35° Northeast  Level Estimated
Sat 03:17:00 PM 19.1581 -98.3715 35° Northeast  Level Estimated
Sat 03:18:00 PM 19.1581 -98.3715 35° Northeast  Level Estimated
Sat 03:19:00 PM 19.1581 -98.3715 35° Northeast  Level Estimated
Sat 03:20:00 PM 19.1581 -98.3715 35° Northeast  Level Estimated
Sat 03:21:00 PM 19.1581 -98.3715 35° Northeast  Level Estimated
Sat 03:22:00 PM 19.1581 -98.3715 35° Northeast  Level Estimated

Login

Don't have an account? Register now (free) for customized features, flight alerts, and more!